createdAt,value
2017-04-13T00:00:31.090Z,99.99
2017-04-13T00:01:39.979Z,99.99
2017-04-13T00:02:49.340Z,99.99
2017-04-13T00:03:58.224Z,99.99
2017-04-13T00:05:07.430Z,99.99
2017-04-13T00:06:16.318Z,99.99
2017-04-13T00:07:25.209Z,99.99
2017-04-13T00:08:34.142Z,99.99
2017-04-13T00:09:43.352Z,99.99
2017-04-13T00:10:52.571Z,99.99
2017-04-13T00:12:01.510Z,99.99
2017-04-13T00:13:10.394Z,99.99
2017-04-13T00:14:19.434Z,99.99
2017-04-13T00:15:28.647Z,99.99
2017-04-13T00:16:37.856Z,99.99
2017-04-13T00:17:47.069Z,99.99
2017-04-13T00:18:55.954Z,99.99
2017-04-13T00:20:05.512Z,99.99
2017-04-13T00:21:14.721Z,99.99
2017-04-13T00:22:23.936Z,99.99
2017-04-13T00:23:32.819Z,99.99
2017-04-13T00:24:42.027Z,99.99
2017-04-13T00:25:51.711Z,99.99
2017-04-13T00:27:00.920Z,99.99
2017-04-13T00:28:09.809Z,99.99
2017-04-13T00:29:19.021Z,99.99
2017-04-13T00:30:28.232Z,99.99
2017-04-13T00:31:37.266Z,99.99
2017-04-13T00:32:46.150Z,99.99
2017-04-13T00:33:55.688Z,99.99
2017-04-13T00:35:04.576Z,99.99
2017-04-13T00:36:13.459Z,99.99
2017-04-13T00:37:22.498Z,99.99
2017-04-13T00:38:32.030Z,99.99
2017-04-13T00:39:41.571Z,99.99
2017-04-13T00:40:50.777Z,99.99
2017-04-13T00:42:00.308Z,99.99
2017-04-13T00:43:09.349Z,99.99
2017-04-13T00:44:18.886Z,99.99
2017-04-13T00:45:28.751Z,99.99
2017-04-13T00:46:37.960Z,99.99
2017-04-13T00:47:46.855Z,99.99
2017-04-13T00:48:56.125Z,99.99
2017-04-13T00:50:05.336Z,99.99
2017-04-13T00:51:14.549Z,99.99
2017-04-13T00:52:23.760Z,99.99
2017-04-13T00:53:32.980Z,99.99
2017-04-13T00:54:42.342Z,99.99
2017-04-13T00:55:51.548Z,99.99
2017-04-13T00:57:00.439Z,99.99
2017-04-13T00:58:09.651Z,99.99
2017-04-13T00:59:19.509Z,99.99
2017-04-13T01:00:28.875Z,99.99
2017-04-13T01:01:38.082Z,99.99
2017-04-13T01:02:47.619Z,99.99
2017-04-13T01:03:56.502Z,99.99
2017-04-13T01:05:05.389Z,99.99
2017-04-13T01:06:14.703Z,99.99
2017-04-13T01:07:23.914Z,99.99
2017-04-13T01:08:32.839Z,99.99
2017-04-13T01:09:41.732Z,99.99
2017-04-13T01:10:51.263Z,99.99
2017-04-13T01:12:00.298Z,99.99
2017-04-13T01:13:09.512Z,99.99
2017-04-13T01:14:18.397Z,99.99
2017-04-13T01:15:27.282Z,99.99
2017-04-13T01:16:36.170Z,99.99
2017-04-13T01:17:45.378Z,99.99
2017-04-13T01:18:54.595Z,99.99
2017-04-13T01:20:03.481Z,99.99
2017-04-13T01:21:12.376Z,99.99
2017-04-13T01:22:21.587Z,99.99
2017-04-13T01:23:31.097Z,99.99
2017-04-13T01:24:40.960Z,99.99
2017-04-13T01:25:50.172Z,99.99
2017-04-13T01:26:59.058Z,99.99
2017-04-13T01:28:07.997Z,99.99
2017-04-13T01:29:18.011Z,99.99
2017-04-13T01:30:27.545Z,99.99
2017-04-13T01:31:36.431Z,99.99
2017-04-13T01:32:45.351Z,99.99
2017-04-13T01:33:55.219Z,99.99
2017-04-13T01:35:04.489Z,99.99
2017-04-13T01:36:14.030Z,99.99
2017-04-13T01:37:23.567Z,99.99
2017-04-13T01:38:33.105Z,99.99
2017-04-13T01:39:42.640Z,99.99
2017-04-13T01:40:52.442Z,99.99
2017-04-13T01:42:01.332Z,99.99
2017-04-13T01:43:10.544Z,99.99
2017-04-13T01:44:19.751Z,99.99
2017-04-13T01:45:28.964Z,99.99
2017-04-13T01:46:38.198Z,99.99
2017-04-13T01:47:47.085Z,99.99
2017-04-13T01:48:55.972Z,99.99
2017-04-13T01:50:04.860Z,99.99
2017-04-13T01:51:14.075Z,99.99
2017-04-13T01:52:23.439Z,99.99
2017-04-13T01:53:32.989Z,99.99
2017-04-13T01:54:42.524Z,99.99
2017-04-13T01:55:51.735Z,99.99
2017-04-13T01:57:00.950Z,99.99
2017-04-13T01:58:09.890Z,99.99
2017-04-13T01:59:18.774Z,99.99
2017-04-13T02:00:28.315Z,99.99
2017-04-13T02:01:37.527Z,99.99
2017-04-13T02:02:46.411Z,99.99
2017-04-13T02:03:55.449Z,99.99
2017-04-13T02:05:04.680Z,99.99
2017-04-13T02:06:14.220Z,99.99
2017-04-13T02:07:23.105Z,99.99
2017-04-13T02:08:32.689Z,99.99
2017-04-13T02:09:41.725Z,99.99
2017-04-13T02:10:50.933Z,99.99
2017-04-13T02:11:59.818Z,99.99
2017-04-13T02:13:09.031Z,99.99
2017-04-13T02:14:18.291Z,99.99
2017-04-13T02:15:27.503Z,99.99
2017-04-13T02:16:36.708Z,99.99
2017-04-13T02:17:45.921Z,99.99
2017-04-13T02:18:55.468Z,99.99
2017-04-13T02:20:04.998Z,99.99
2017-04-13T02:21:14.640Z,99.99
2017-04-13T02:22:23.851Z,99.99
2017-04-13T02:23:32.741Z,99.99
2017-04-13T02:24:42.275Z,99.99
2017-04-13T02:25:51.510Z,99.99
2017-04-13T02:27:00.598Z,99.99
2017-04-13T02:28:09.804Z,99.99
2017-04-13T02:29:19.010Z,99.99
2017-04-13T02:30:28.226Z,99.99
2017-04-13T02:31:37.439Z,99.99
2017-04-13T02:32:46.379Z,99.99
2017-04-13T02:33:55.270Z,99.99
2017-04-13T02:35:04.163Z,99.99
2017-04-13T02:36:13.051Z,99.99
2017-04-13T02:37:21.941Z,99.99
2017-04-13T02:38:31.449Z,99.99
2017-04-13T02:39:40.337Z,99.99
2017-04-13T02:40:49.225Z,99.99
2017-04-13T02:41:58.111Z,99.99
2017-04-13T02:43:07.327Z,99.99
2017-04-13T02:44:16.589Z,99.99
2017-04-13T02:45:25.802Z,99.99
2017-04-13T02:46:35.017Z,99.99
2017-04-13T02:47:44.227Z,99.99
2017-04-13T02:48:53.119Z,99.99
2017-04-13T02:50:02.581Z,99.99
2017-04-13T02:51:11.524Z,99.99
2017-04-13T02:52:20.408Z,99.99
2017-04-13T02:53:29.298Z,99.99
2017-04-13T02:54:38.841Z,99.99
2017-04-13T02:55:48.199Z,99.99
2017-04-13T02:56:57.079Z,99.99
2017-04-13T02:58:05.966Z,99.99
2017-04-13T02:59:14.850Z,99.99
2017-04-13T03:00:23.737Z,99.99
2017-04-13T03:01:32.682Z,99.99
2017-04-13T03:02:41.893Z,99.99
2017-04-13T03:03:50.779Z,99.99
2017-04-13T03:04:59.989Z,99.99
2017-04-13T03:06:08.876Z,99.99
2017-04-13T03:07:17.914Z,99.99
2017-04-13T03:08:26.798Z,99.99
2017-04-13T03:09:36.020Z,99.99
2017-04-13T03:10:45.285Z,99.99
2017-04-13T03:11:54.496Z,99.99
2017-04-13T03:13:03.639Z,99.99
2017-04-13T03:14:13.177Z,99.99
2017-04-13T03:15:23.057Z,99.99
2017-04-13T03:16:31.952Z,99.99
2017-04-13T03:17:40.842Z,99.99
2017-04-13T03:18:50.806Z,99.99
2017-04-13T03:20:00.027Z,99.99
2017-04-13T03:21:09.566Z,99.99
2017-04-13T03:22:18.451Z,99.99
2017-04-13T03:23:27.342Z,99.99
2017-04-13T03:24:37.316Z,99.99
2017-04-13T03:25:46.204Z,99.99
2017-04-13T03:26:55.413Z,99.99
2017-04-13T03:28:04.627Z,99.99
2017-04-13T03:29:13.529Z,99.99
2017-04-13T03:30:22.669Z,99.99
2017-04-13T03:31:31.558Z,99.99
2017-04-13T03:32:40.453Z,99.99
2017-04-13T03:33:49.664Z,99.99
2017-04-13T03:34:58.873Z,99.99
2017-04-13T03:36:08.227Z,99.99
2017-04-13T03:37:17.442Z,99.99
2017-04-13T03:38:26.650Z,99.99
2017-04-13T03:39:35.539Z,99.99
2017-04-13T03:40:44.749Z,99.99
2017-04-13T03:41:54.160Z,99.99
2017-04-13T03:43:03.430Z,99.99
2017-04-13T03:44:12.316Z,99.99
2017-04-13T03:45:21.526Z,99.99
2017-04-13T03:46:30.735Z,99.99
2017-04-13T03:47:39.770Z,99.99
2017-04-13T03:48:49.046Z,99.99
2017-04-13T03:49:57.930Z,99.99
2017-04-13T03:51:07.141Z,99.99
2017-04-13T03:52:16.034Z,99.99
2017-04-13T03:53:25.170Z,99.99
2017-04-13T03:54:34.383Z,99.99
2017-04-13T03:55:43.917Z,99.99
2017-04-13T03:56:53.129Z,99.99
2017-04-13T03:58:02.014Z,99.99
2017-04-13T03:59:11.228Z,99.99
2017-04-13T04:00:20.831Z,99.99
2017-04-13T04:01:30.042Z,99.99
2017-04-13T04:02:39.258Z,99.99
2017-04-13T04:03:48.147Z,99.99
2017-04-13T04:04:57.213Z,99.99
2017-04-13T04:06:06.103Z,99.99
2017-04-13T04:07:14.994Z,99.99
2017-04-13T04:08:23.970Z,99.99
2017-04-13T04:09:32.861Z,99.99
2017-04-13T04:10:41.998Z,99.99
2017-04-13T04:11:50.934Z,99.99
2017-04-13T04:12:59.817Z,99.99
2017-04-13T04:14:08.703Z,99.99
2017-04-13T04:15:17.915Z,99.99
2017-04-13T04:16:27.122Z,99.99
2017-04-13T04:17:36.012Z,99.99
2017-04-13T04:18:45.226Z,99.99
2017-04-13T04:19:54.110Z,99.99
2017-04-13T04:21:02.993Z,99.99
2017-04-13T04:22:12.140Z,99.99
2017-04-13T04:23:21.680Z,99.99
2017-04-13T04:24:30.890Z,99.99
2017-04-13T04:25:39.788Z,99.99
2017-04-13T04:26:48.675Z,99.99
2017-04-13T04:27:57.712Z,99.99
2017-04-13T04:29:07.260Z,99.99
2017-04-13T04:30:16.142Z,99.99
2017-04-13T04:31:25.027Z,99.99
2017-04-13T04:32:34.240Z,99.99
2017-04-13T04:33:43.129Z,99.99
2017-04-13T04:34:52.345Z,99.99
2017-04-13T04:36:01.228Z,99.99
2017-04-13T04:37:10.118Z,99.99
2017-04-13T04:38:19.002Z,99.99
2017-04-13T04:39:27.939Z,99.99
2017-04-13T04:40:36.828Z,99.99
2017-04-13T04:41:45.714Z,99.99
2017-04-13T04:42:54.598Z,99.99
2017-04-13T04:44:04.134Z,99.99
2017-04-13T04:45:13.398Z,99.99
2017-04-13T04:46:22.282Z,99.99
2017-04-13T04:47:31.168Z,99.99
2017-04-13T04:48:40.053Z,99.99
2017-04-13T04:49:48.935Z,99.99
2017-04-13T04:50:58.119Z,99.99
2017-04-13T04:52:07.338Z,99.99
2017-04-13T04:53:16.267Z,99.99
2017-04-13T04:54:25.149Z,99.99
2017-04-13T04:55:34.365Z,99.99
2017-04-13T04:56:43.951Z,99.99
2017-04-13T04:57:52.835Z,99.99
2017-04-13T04:59:02.044Z,99.99
2017-04-13T05:00:11.314Z,99.99
2017-04-13T05:01:20.527Z,99.99
2017-04-13T05:02:29.516Z,99.99
2017-04-13T05:03:38.731Z,99.99
2017-04-13T05:04:47.618Z,99.99
2017-04-13T05:05:56.509Z,99.99
2017-04-13T05:07:05.402Z,99.99
2017-04-13T05:08:14.443Z,99.99
2017-04-13T05:09:23.976Z,99.99
2017-04-13T05:10:32.872Z,99.99
2017-04-13T05:11:41.756Z,99.99
2017-04-13T05:12:50.642Z,99.99
2017-04-13T05:13:59.904Z,99.99
2017-04-13T05:15:08.794Z,99.99
2017-04-13T05:16:17.679Z,99.99
2017-04-13T05:17:26.562Z,99.99
2017-04-13T05:18:36.095Z,99.99
2017-04-13T05:19:45.128Z,99.99
2017-04-13T05:20:54.020Z,99.99
2017-04-13T05:22:02.907Z,99.99
2017-04-13T05:23:12.121Z,99.99
2017-04-13T05:24:21.005Z,99.99
2017-04-13T05:25:30.041Z,99.99
2017-04-13T05:26:38.928Z,99.99
2017-04-13T05:27:48.147Z,99.99
2017-04-13T05:28:57.032Z,99.99
2017-04-13T05:30:06.242Z,99.99
2017-04-13T05:31:15.504Z,99.99
2017-04-13T05:32:24.404Z,99.99
2017-04-13T05:33:33.290Z,99.99
2017-04-13T05:34:42.506Z,99.99
2017-04-13T05:35:51.716Z,99.99
2017-04-13T05:37:01.503Z,99.99
2017-04-13T05:38:10.394Z,99.99
2017-04-13T05:39:19.605Z,99.99
2017-04-13T05:40:28.498Z,99.99
2017-04-13T05:41:37.390Z,99.99
2017-04-13T05:42:46.525Z,99.99
2017-04-13T05:43:55.736Z,99.99
2017-04-13T05:45:04.949Z,99.99
2017-04-13T05:46:14.158Z,99.99
2017-04-13T05:47:23.371Z,99.99
2017-04-13T05:48:32.411Z,99.99
2017-04-13T05:49:41.296Z,99.99
2017-04-13T05:50:50.181Z,99.99
2017-04-13T05:51:59.067Z,99.99
2017-04-13T05:53:07.954Z,99.99
2017-04-13T05:54:16.893Z,99.99
2017-04-13T05:55:26.434Z,99.99
2017-04-13T05:56:35.318Z,99.99
2017-04-13T05:57:44.204Z,99.99
2017-04-13T05:58:53.750Z,99.99
2017-04-13T06:00:02.785Z,99.99
2017-04-13T06:01:11.998Z,99.99
2017-04-13T06:02:21.533Z,99.99
2017-04-13T06:03:30.427Z,99.99
2017-04-13T06:04:39.637Z,99.99
2017-04-13T06:05:48.676Z,99.99
2017-04-13T06:06:57.564Z,99.99
2017-04-13T06:08:06.785Z,99.99
2017-04-13T06:09:16.004Z,99.99
2017-04-13T06:10:24.895Z,99.99
2017-04-13T06:11:34.192Z,99.99
2017-04-13T06:12:43.120Z,99.99
2017-04-13T06:13:52.004Z,99.99
2017-04-13T06:15:00.891Z,99.99
2017-04-13T06:16:09.785Z,99.99
2017-04-13T06:17:19.151Z,99.99
2017-04-13T06:18:28.368Z,99.99
2017-04-13T06:19:37.943Z,99.99
2017-04-13T06:20:47.163Z,99.99
2017-04-13T06:21:56.048Z,99.99
2017-04-13T06:23:05.193Z,99.99
2017-04-13T06:24:14.083Z,99.99
2017-04-13T06:25:23.294Z,99.99
2017-04-13T06:26:32.833Z,99.99
2017-04-13T06:27:41.727Z,99.99
2017-04-13T06:28:50.765Z,99.99
2017-04-13T06:29:59.649Z,99.99
2017-04-13T06:31:08.537Z,99.99
2017-04-13T06:32:17.430Z,99.99
2017-04-13T06:33:26.966Z,99.99
2017-04-13T06:34:36.253Z,99.99
2017-04-13T06:35:45.795Z,99.99
2017-04-13T06:36:54.688Z,99.99
2017-04-13T06:38:03.576Z,99.99
2017-04-13T06:39:12.460Z,99.99
2017-04-13T06:40:21.875Z,99.99
2017-04-13T06:41:30.759Z,99.99
2017-04-13T06:42:39.968Z,99.99
2017-04-13T06:43:48.856Z,99.99
2017-04-13T06:44:57.742Z,99.99
2017-04-13T06:46:07.103Z,99.99
2017-04-13T06:47:16.005Z,99.99
2017-04-13T06:48:24.896Z,99.99
2017-04-13T06:49:33.788Z,99.99
2017-04-13T06:50:42.680Z,99.99
2017-04-13T06:51:51.977Z,99.99
2017-04-13T06:53:00.862Z,99.99
2017-04-13T06:54:09.751Z,99.99
2017-04-13T06:55:18.723Z,99.99
2017-04-13T06:56:27.934Z,99.99
2017-04-13T06:57:38.003Z,99.99
2017-04-13T06:58:46.894Z,99.99
2017-04-13T06:59:55.778Z,99.99
2017-04-13T07:01:04.663Z,99.99
2017-04-13T07:02:13.877Z,99.99
2017-04-13T07:03:23.292Z,99.99
2017-04-13T07:04:32.184Z,99.99
2017-04-13T07:05:41.126Z,99.99
2017-04-13T07:06:50.339Z,99.99
2017-04-13T07:07:59.244Z,99.99
2017-04-13T07:09:08.431Z,99.99
2017-04-13T07:10:17.641Z,99.99
2017-04-13T07:11:26.531Z,99.99
2017-04-13T07:12:35.468Z,99.99
2017-04-13T07:13:44.367Z,99.99
2017-04-13T07:14:53.310Z,99.99
2017-04-13T07:16:02.206Z,99.99
2017-04-13T07:17:11.422Z,99.99
2017-04-13T07:18:20.313Z,99.99
2017-04-13T07:19:29.206Z,99.99
2017-04-13T07:20:38.577Z,99.99
2017-04-13T07:21:47.795Z,99.99
2017-04-13T07:22:56.686Z,99.99
2017-04-13T07:24:05.573Z,99.99
2017-04-13T07:25:14.460Z,99.99
2017-04-13T07:26:23.830Z,99.99
2017-04-13T07:27:33.695Z,99.99
2017-04-13T07:28:42.587Z,99.99
2017-04-13T07:29:51.476Z,99.99
2017-04-13T07:31:00.371Z,99.99
2017-04-13T07:32:09.423Z,99.99
2017-04-13T07:33:18.315Z,99.99
2017-04-13T07:34:27.230Z,99.99
2017-04-13T07:35:36.443Z,99.99
2017-04-13T07:36:45.333Z,99.99
2017-04-13T07:37:54.273Z,99.99
2017-04-13T07:39:03.163Z,99.99
2017-04-13T07:40:12.053Z,99.99
2017-04-13T07:41:20.942Z,99.99
2017-04-13T07:42:30.166Z,99.99
2017-04-13T07:43:39.306Z,99.99
2017-04-13T07:44:48.197Z,99.99
2017-04-13T07:45:57.128Z,99.99
2017-04-13T07:47:06.019Z,99.99
2017-04-13T07:48:14.911Z,99.99
2017-04-13T07:49:24.050Z,99.99
2017-04-13T07:50:32.939Z,99.99
2017-04-13T07:51:41.825Z,99.55
2017-04-13T07:52:51.041Z,98.98
2017-04-13T07:53:59.928Z,99.99
2017-04-13T07:55:08.920Z,97.46
2017-04-13T07:56:17.813Z,99.17
2017-04-13T07:57:27.024Z,99.99
2017-04-13T07:58:36.236Z,97.55
2017-04-13T07:59:45.171Z,98.22
2017-04-13T08:00:54.361Z,99.46
2017-04-13T08:02:03.258Z,97.55
2017-04-13T08:03:12.146Z,98.03
2017-04-13T08:04:21.359Z,96.6
2017-04-13T08:05:30.573Z,94.22
2017-04-13T08:06:39.625Z,95.27
2017-04-13T08:07:48.866Z,93.55
2017-04-13T08:08:57.752Z,92.13
2017-04-13T08:10:06.652Z,93.55
2017-04-13T08:11:15.871Z,92.7
2017-04-13T08:12:25.136Z,93.18
2017-04-13T08:13:34.025Z,92.7
2017-04-13T08:14:42.916Z,93.18
2017-04-13T08:15:51.804Z,93.65
2017-04-13T08:17:00.713Z,93.94
2017-04-13T08:18:09.982Z,92.79
2017-04-13T08:19:19.193Z,94.42
2017-04-13T08:20:28.410Z,93.84
2017-04-13T08:21:37.298Z,96.12
2017-04-13T08:22:46.839Z,93.18
2017-04-13T08:23:55.880Z,91.08
2017-04-13T08:25:04.775Z,96.12
2017-04-13T08:26:13.671Z,99.27
2017-04-13T08:27:22.568Z,99.99
2017-04-13T08:28:31.783Z,98.79
2017-04-13T08:29:41.875Z,99.17
2017-04-13T08:30:50.768Z,99.6
2017-04-13T08:31:59.663Z,98.6
2017-04-13T08:33:09.198Z,98.08
2017-04-13T08:34:18.411Z,99.99
2017-04-13T08:35:27.397Z,99.55
2017-04-13T08:36:36.287Z,98.32
2017-04-13T08:37:45.497Z,99.27
2017-04-13T08:38:54.387Z,99.99
2017-04-13T08:40:03.279Z,98.88
2017-04-13T08:41:12.317Z,97.93
2017-04-13T08:42:21.212Z,99.46
2017-04-13T08:43:30.434Z,97.74
2017-04-13T08:44:39.336Z,95.84
2017-04-13T08:45:48.896Z,95.98
2017-04-13T08:46:57.943Z,95.03
2017-04-13T08:48:06.847Z,97.88
2017-04-13T08:49:15.745Z,98.17
2017-04-13T08:50:24.649Z,97.17
2017-04-13T08:51:33.560Z,96.6
2017-04-13T08:52:42.942Z,95.27
2017-04-13T08:53:51.842Z,95.56
2017-04-13T08:55:00.741Z,93.46
2017-04-13T08:56:09.629Z,93.18
2017-04-13T08:57:18.521Z,92.03
2017-04-13T08:58:27.560Z,93.74
2017-04-13T08:59:36.449Z,90.99
2017-04-13T09:00:45.338Z,88.37
2017-04-13T09:01:54.251Z,92.41
2017-04-13T09:03:03.464Z,86.27
2017-04-13T09:04:12.601Z,88.65
2017-04-13T09:05:21.822Z,83.8
2017-04-13T09:06:30.721Z,81.98
2017-04-13T09:07:39.656Z,81.6
2017-04-13T09:08:48.549Z,81.23
2017-04-13T09:09:57.487Z,79.51
2017-04-13T09:11:06.391Z,78.56
2017-04-13T09:12:15.282Z,78.65
2017-04-13T09:13:24.171Z,78.75
2017-04-13T09:14:33.066Z,83.8
2017-04-13T09:15:42.007Z,81.98
2017-04-13T09:16:50.894Z,81.17
2017-04-13T09:17:59.783Z,79.74
2017-04-13T09:19:08.672Z,82.31
2017-04-13T09:20:17.888Z,82.12
2017-04-13T09:21:27.155Z,79.27
2017-04-13T09:22:36.367Z,75.93
2017-04-13T09:23:45.261Z,77.64
2017-04-13T09:24:54.149Z,77.74
2017-04-13T09:26:03.365Z,77.93
2017-04-13T09:27:12.357Z,77.93
2017-04-13T09:28:21.573Z,78.5
2017-04-13T09:29:30.462Z,77.64
2017-04-13T09:30:39.349Z,79.64
2017-04-13T09:31:48.240Z,80.22
2017-04-13T09:32:57.277Z,80.07
2017-04-13T09:34:06.168Z,77.69
2017-04-13T09:35:15.064Z,78.59
2017-04-13T09:36:24.283Z,78.41
2017-04-13T09:37:33.497Z,78.12
2017-04-13T09:38:42.762Z,78.31
2017-04-13T09:39:51.650Z,81.55
2017-04-13T09:41:00.545Z,78.59
2017-04-13T09:42:09.446Z,80.22
2017-04-13T09:43:18.663Z,78.69
2017-04-13T09:44:27.705Z,79.46
2017-04-13T09:45:36.604Z,77.64
2017-04-13T09:46:45.817Z,76.88
2017-04-13T09:47:55.033Z,76.82
2017-04-13T09:49:03.925Z,76.54
2017-04-13T09:50:12.867Z,75.96
2017-04-13T09:51:21.761Z,75.74
2017-04-13T09:52:30.655Z,78.41
2017-04-13T09:53:39.546Z,79.17
2017-04-13T09:54:48.448Z,77.83
2017-04-13T09:55:57.337Z,77.07
2017-04-13T09:57:06.232Z,82.31
2017-04-13T09:58:15.448Z,89.84
2017-04-13T09:59:24.336Z,93.32
2017-04-13T10:00:33.548Z,95.12
2017-04-13T10:01:42.489Z,98.41
2017-04-13T10:02:51.377Z,99.99
2017-04-13T10:04:00.267Z,99.99
2017-04-13T10:05:09.161Z,99.99
2017-04-13T10:06:18.052Z,99.99
2017-04-13T10:07:27.038Z,99.99
2017-04-13T10:08:36.304Z,99.99
2017-04-13T10:09:45.191Z,99.99
2017-04-13T10:10:54.080Z,99.99
2017-04-13T10:12:02.973Z,99.99
2017-04-13T10:13:12.394Z,99.99
2017-04-13T10:14:21.607Z,98.08
2017-04-13T10:15:30.495Z,98.17
2017-04-13T10:16:40.035Z,96.6
2017-04-13T10:17:49.251Z,94.42
2017-04-13T10:18:58.296Z,93.08
2017-04-13T10:20:07.508Z,92.51
2017-04-13T10:21:16.397Z,91.94
2017-04-13T10:22:25.296Z,92.89
2017-04-13T10:23:34.256Z,94.27
2017-04-13T10:24:43.296Z,91.89
2017-04-13T10:25:52.182Z,92.74
2017-04-13T10:27:01.071Z,95.12
2017-04-13T10:28:09.971Z,92.74
2017-04-13T10:29:18.860Z,95.12
2017-04-13T10:30:27.999Z,87.74
2017-04-13T10:31:37.214Z,83.07
2017-04-13T10:32:46.098Z,80.79
2017-04-13T10:33:55.309Z,77.42
2017-04-13T10:35:04.525Z,78.46
2017-04-13T10:36:13.524Z,76.46
2017-04-13T10:37:22.419Z,76.84
2017-04-13T10:38:31.308Z,77.45
2017-04-13T10:39:40.259Z,78.78
2017-04-13T10:40:49.479Z,78.31
2017-04-13T10:41:58.517Z,77.17
2017-04-13T10:43:07.738Z,76.69
2017-04-13T10:44:16.951Z,78.59
2017-04-13T10:45:25.850Z,78.78
2017-04-13T10:46:34.745Z,76.5
2017-04-13T10:47:43.783Z,77.17
2017-04-13T10:48:52.676Z,77.74
2017-04-13T10:50:01.890Z,77.55
2017-04-13T10:51:10.784Z,76.79
2017-04-13T10:52:19.681Z,78.69
2017-04-13T10:53:28.820Z,83.07
2017-04-13T10:54:37.708Z,76.98
2017-04-13T10:55:46.596Z,76.5
2017-04-13T10:56:55.811Z,76.4
2017-04-13T10:58:05.350Z,74.21
2017-04-13T10:59:14.291Z,76.03
2017-04-13T11:00:23.508Z,74.5
2017-04-13T11:01:32.398Z,75.11
2017-04-13T11:02:41.284Z,77.78
2017-04-13T11:03:50.498Z,73.87
2017-04-13T11:04:59.489Z,80.92
2017-04-13T11:06:08.706Z,85.27
2017-04-13T11:07:17.916Z,86.03
2017-04-13T11:08:26.953Z,84.79
2017-04-13T11:09:35.843Z,84.84
2017-04-13T11:10:44.937Z,86.6
2017-04-13T11:11:53.825Z,83.36
2017-04-13T11:13:02.718Z,84.41
2017-04-13T11:14:11.936Z,82.12
2017-04-13T11:15:20.825Z,78.31
2017-04-13T11:16:29.867Z,77.26
2017-04-13T11:17:38.763Z,77.17
2017-04-13T11:18:47.691Z,76.31
2017-04-13T11:19:56.619Z,76.88
2017-04-13T11:21:05.834Z,79.83
2017-04-13T11:22:15.199Z,75.26
2017-04-13T11:23:24.411Z,78.78
2017-04-13T11:24:33.300Z,77.74
2017-04-13T11:25:42.189Z,76.79
2017-04-13T11:26:51.082Z,79.74
2017-04-13T11:28:00.066Z,77.26
2017-04-13T11:29:09.286Z,78.31
2017-04-13T11:30:18.184Z,78.31
2017-04-13T11:31:27.074Z,81.07
2017-04-13T11:32:35.967Z,79.27
2017-04-13T11:33:45.153Z,80.88
2017-04-13T11:34:54.042Z,81.36
2017-04-13T11:36:02.936Z,82.69
2017-04-13T11:37:12.153Z,78.22
2017-04-13T11:38:21.043Z,78.69
2017-04-13T11:39:30.076Z,81.46
2017-04-13T11:40:38.965Z,82.89
2017-04-13T11:41:47.862Z,78.31
2017-04-13T11:42:56.750Z,78.03
2017-04-13T11:44:05.647Z,77.36
2017-04-13T11:45:14.683Z,76.79
2017-04-13T11:46:23.588Z,80.88
2017-04-13T11:47:32.808Z,77.36
2017-04-13T11:48:41.698Z,73.83
2017-04-13T11:49:50.586Z,76.4
2017-04-13T11:50:59.526Z,71.55
2017-04-13T11:52:08.418Z,72.6
2017-04-13T11:53:17.636Z,70.69
2017-04-13T11:54:26.524Z,73.17
2017-04-13T11:55:35.737Z,72.69
2017-04-13T11:56:45.151Z,70.34
2017-04-13T11:57:54.045Z,70.06
2017-04-13T11:59:03.592Z,68.82
2017-04-13T12:00:12.815Z,67.14
2017-04-13T12:01:21.711Z,67.14
2017-04-13T12:02:30.598Z,65.23
2017-04-13T12:03:40.139Z,65.7
2017-04-13T12:04:49.728Z,66.47
2017-04-13T12:05:58.621Z,69.33
2017-04-13T12:07:07.511Z,72.19
2017-04-13T12:08:16.554Z,73.39
2017-04-13T12:09:25.450Z,74.06
2017-04-13T12:10:34.348Z,74.82
2017-04-13T12:11:43.564Z,75.68
2017-04-13T12:12:53.112Z,77.87
2017-04-13T12:14:02.150Z,74.63
2017-04-13T12:15:11.364Z,76.16
2017-04-13T12:16:20.587Z,75.68
2017-04-13T12:17:29.481Z,76.03
2017-04-13T12:18:38.705Z,78.78
2017-04-13T12:19:48.269Z,78.5
2017-04-13T12:20:57.159Z,78.41
2017-04-13T12:22:06.051Z,82.89
2017-04-13T12:23:15.267Z,77.64
2017-04-13T12:24:24.159Z,76.69
2017-04-13T12:25:33.200Z,74.79
2017-04-13T12:26:42.413Z,71.93
2017-04-13T12:27:51.307Z,70.21
2017-04-13T12:29:00.244Z,73.07
2017-04-13T12:30:09.139Z,75.55
2017-04-13T12:31:18.181Z,75.07
2017-04-13T12:32:27.398Z,75.36
2017-04-13T12:33:36.616Z,73.26
2017-04-13T12:34:45.828Z,75.26
2017-04-13T12:35:54.718Z,72.5
2017-04-13T12:37:03.755Z,72.69
2017-04-13T12:38:12.970Z,71.26
2017-04-13T12:39:21.861Z,74.02
2017-04-13T12:40:30.757Z,75.3
2017-04-13T12:41:39.645Z,81.55
2017-04-13T12:42:49.115Z,84.79
2017-04-13T12:43:58.002Z,87.89
2017-04-13T12:45:06.933Z,87.51
2017-04-13T12:46:16.144Z,88.75
2017-04-13T12:47:25.357Z,88.75
2017-04-13T12:48:34.819Z,85.7
2017-04-13T12:49:43.713Z,88.08
2017-04-13T12:50:52.603Z,90.17
2017-04-13T12:52:01.493Z,91.89
2017-04-13T12:53:10.380Z,93.08
2017-04-13T12:54:19.527Z,92.13
2017-04-13T12:55:29.070Z,94.32
2017-04-13T12:56:37.959Z,94.03
2017-04-13T12:57:46.846Z,92.03
2017-04-13T12:58:56.062Z,91.84
2017-04-13T13:00:05.298Z,92.22
2017-04-13T13:01:14.834Z,89.56
2017-04-13T13:02:23.722Z,88.42
2017-04-13T13:03:32.620Z,91.56
2017-04-13T13:04:41.515Z,91.56
2017-04-13T13:05:50.563Z,89.37
2017-04-13T13:06:59.457Z,85.41
2017-04-13T13:08:08.352Z,86.27
2017-04-13T13:09:17.245Z,84.27
2017-04-13T13:10:26.135Z,80.6
2017-04-13T13:11:35.174Z,78.88
2017-04-13T13:12:44.064Z,78.59
2017-04-13T13:13:53.281Z,76.92
2017-04-13T13:15:02.174Z,75.3
2017-04-13T13:16:11.068Z,77.2
2017-04-13T13:17:20.161Z,77.01
2017-04-13T13:18:29.052Z,76.82
2017-04-13T13:19:37.945Z,75.78
2017-04-13T13:20:46.842Z,74.25
2017-04-13T13:21:55.742Z,72.82
2017-04-13T13:23:04.735Z,73.01
2017-04-13T13:24:13.633Z,68.76
2017-04-13T13:25:22.535Z,68.66
2017-04-13T13:26:31.772Z,70.13
2017-04-13T13:27:40.992Z,67.8
2017-04-13T13:28:50.359Z,67.9
2017-04-13T13:29:59.252Z,67.52
2017-04-13T13:31:08.150Z,67.42
2017-04-13T13:32:17.370Z,67.71
2017-04-13T13:33:26.265Z,67.8
2017-04-13T13:34:35.315Z,67.14
2017-04-13T13:35:44.209Z,65.52
2017-04-13T13:36:53.104Z,64.72
2017-04-13T13:38:02.002Z,65.33
2017-04-13T13:39:10.896Z,65.8
2017-04-13T13:40:20.189Z,65.33
2017-04-13T13:41:29.088Z,65.42
2017-04-13T13:42:38.318Z,63.64
2017-04-13T13:43:47.535Z,61.92
2017-04-13T13:44:56.760Z,63.73
2017-04-13T13:46:06.134Z,64.5
2017-04-13T13:47:15.355Z,63.73
2017-04-13T13:48:24.253Z,62.68
2017-04-13T13:49:33.172Z,62.88
2017-04-13T13:50:42.077Z,64.21
2017-04-13T13:51:51.668Z,64.97
2017-04-13T13:53:00.563Z,63.42
2017-04-13T13:54:09.784Z,63.51
2017-04-13T13:55:19.003Z,63.13
2017-04-13T13:56:28.227Z,62.27
2017-04-13T13:57:37.520Z,65.13
2017-04-13T13:58:46.413Z,66.09
2017-04-13T13:59:55.306Z,66.47
2017-04-13T14:01:04.199Z,65.61
2017-04-13T14:02:13.417Z,67.33
2017-04-13T14:03:22.458Z,65.04
2017-04-13T14:04:31.356Z,64.5
2017-04-13T14:05:40.293Z,66.22
2017-04-13T14:06:49.195Z,64.88
2017-04-13T14:07:58.099Z,62.91
2017-04-13T14:09:07.156Z,63.39
2017-04-13T14:10:16.427Z,63.86
2017-04-13T14:11:25.325Z,63.29
2017-04-13T14:12:34.237Z,62.91
2017-04-13T14:13:43.127Z,62.34
2017-04-13T14:14:52.172Z,61.19
2017-04-13T14:16:01.068Z,61.76
2017-04-13T14:17:09.971Z,63.48
2017-04-13T14:18:19.525Z,62.52
2017-04-13T14:19:28.426Z,61.47
2017-04-13T14:20:37.570Z,61.89
2017-04-13T14:21:46.471Z,61.79
2017-04-13T14:22:55.374Z,60.07
2017-04-13T14:24:04.304Z,60.64
2017-04-13T14:25:13.529Z,60.36
2017-04-13T14:26:22.881Z,61.41
2017-04-13T14:27:31.782Z,61.89
2017-04-13T14:28:41.014Z,62.46
2017-04-13T14:29:49.914Z,62.18
2017-04-13T14:30:58.861Z,63
2017-04-13T14:32:07.760Z,63.67
2017-04-13T14:33:16.985Z,63.67
2017-04-13T14:34:25.888Z,65.74
2017-04-13T14:35:35.436Z,65.67
2017-04-13T14:36:44.335Z,65.01
2017-04-13T14:37:53.937Z,64.05
2017-04-13T14:39:03.481Z,63.54
2017-04-13T14:40:12.378Z,63.54
2017-04-13T14:41:21.277Z,61.07
2017-04-13T14:42:30.174Z,59.95
2017-04-13T14:43:39.120Z,61.07
2017-04-13T14:44:48.067Z,61.19
2017-04-13T14:45:56.960Z,59.85
2017-04-13T14:47:05.911Z,60.52
2017-04-13T14:48:14.822Z,59.09
2017-04-13T14:49:24.334Z,58.33
2017-04-13T14:50:33.232Z,59.44